Time;durP1;ratioP1;P1;durP2;ratioP2;P2;SDS_P1;SDS_P2;PMS_P1;PMS_P2;Temp;Humidity;BMP_temperature;BMP_pressure;BME280_temperature;BME280_humidity;BME280_pressure;Samples;Min_cycle;Max_cycle;Signal;HPM_P1;HPM_P2
2021/07/11 00:00:11;;;;;;;4.93;4.53;;;;;;;15.95;75.43;101633.06;5032821;28;20183;-71
2021/07/11 00:02:37;;;;;;;6.27;4.90;;;;;;;15.96;76.09;101663.66;5036316;28;20180;-72
2021/07/11 00:05:05;;;;;;;4.87;4.47;;;;;;;16.54;75.18;101723.13;5033739;28;20469;-72
2021/07/11 00:07:30;;;;;;;4.87;4.47;;;;;;;16.36;75.74;101717.59;5029968;28;20266;-72
2021/07/11 00:09:57;;;;;;;5.50;4.93;;;;;;;15.88;75.86;101658.47;5030131;28;20442;-71
2021/07/11 00:12:23;;;;;;;4.87;4.47;;;;;;;16.22;75.69;101692.47;5035287;28;20220;-71
2021/07/11 00:14:48;;;;;;;4.40;4.10;;;;;;;16.24;75.51;101690.38;5039183;28;20511;-71
2021/07/11 00:17:13;;;;;;;4.03;3.73;;;;;;;16.41;75.65;101720.50;5032960;28;20687;-71
2021/07/11 00:19:39;;;;;;;4.30;3.97;;;;;;;16.21;76.11;101709.75;5033143;28;20273;-71
2021/07/11 00:22:04;;;;;;;4.50;4.10;;;;;;;15.69;76.56;101638.56;5034094;28;20196;-71
2021/07/11 00:24:29;;;;;;;4.60;4.30;;;;;;;16.06;76.97;101711.91;5035893;28;20593;-71
2021/07/11 00:26:55;;;;;;;4.70;4.33;;;;;;;15.99;77.29;101733.56;5034004;28;20215;-71
2021/07/11 00:29:20;;;;;;;4.40;4.00;;;;;;;16.00;76.72;101705.47;5035040;28;20192;-71
2021/07/11 00:31:46;;;;;;;3.97;3.67;;;;;;;15.88;76.74;101683.66;5034010;28;20187;-71
2021/07/11 00:34:11;;;;;;;3.77;3.47;;;;;;;15.91;76.96;101695.91;5035233;28;21123;-72
2021/07/11 00:36:36;;;;;;;4.30;4.00;;;;;;;15.39;77.91;101644.47;5032145;28;20210;-71
2021/07/11 00:39:03;;;;;;;4.07;3.77;;;;;;;15.94;77.97;101717.13;5033718;28;20198;-71
2021/07/11 00:41:28;;;;;;;4.70;4.20;;;;;;;15.59;78.18;101639.81;5035413;28;20203;-72
2021/07/11 00:43:53;;;;;;;5.13;3.40;;;;;;;16.12;77.38;101711.88;5036700;28;20461;-72
2021/07/11 00:46:19;;;;;;;4.20;3.60;;;;;;;15.42;78.31;101637.75;5029590;28;20252;-71
2021/07/11 00:48:45;;;;;;;4.83;4.03;;;;;;;15.80;77.41;101667.66;5032144;28;20802;-71
2021/07/11 00:51:10;;;;;;;3.60;3.40;;;;;;;16.07;77.35;101716.28;5033871;28;20194;-71
2021/07/11 00:53:36;;;;;;;4.27;3.87;;;;;;;16.17;77.57;101725.59;5034797;28;20231;-71
2021/07/11 00:56:01;;;;;;;4.70;3.47;;;;;;;15.93;78.99;101737.13;5028639;28;20219;-71
2021/07/11 00:58:27;;;;;;;4.67;4.37;;;;;;;15.82;78.23;101708.84;5032071;28;20185;-71
2021/07/11 01:00:55;;;;;;;4.60;4.03;;;;;;;16.11;77.40;101736.44;5033169;28;20188;-72
2021/07/11 01:03:38;;;;;;;4.63;4.27;;;;;;;15.93;77.24;101704.66;5031874;28;20281;-71
2021/07/11 01:06:03;;;;;;;4.53;4.20;;;;;;;15.94;77.42;101714.44;5033649;28;20573;-71
2021/07/11 01:08:53;;;;;;;4.10;3.77;;;;;;;15.91;77.46;101704.88;5032394;28;20525;-71
2021/07/11 01:11:23;;;;;;;4.47;4.17;;;;;;;15.55;78.26;101675.59;5029294;28;20182;-71
2021/07/11 01:13:50;;;;;;;4.03;3.73;;;;;;;15.77;77.80;101698.69;5032846;28;20435;-71
2021/07/11 01:16:21;;;;;;;4.50;4.20;;;;;;;15.47;78.31;101651.50;5027531;28;20497;-71
2021/07/11 01:18:48;;;;;;;4.30;4.00;;;;;;;16.06;78.14;101720.84;5031505;28;20431;-71
2021/07/11 01:21:18;;;;;;;4.83;4.33;;;;;;;15.66;77.99;101661.44;5037202;28;20446;-71
2021/07/11 01:24:00;;;;;;;5.50;5.00;;;;;;;15.63;78.07;101677.25;5031648;28;20458;-71
2021/07/11 01:26:29;;;;;;;4.83;4.43;;;;;;;15.96;78.26;101725.88;5019936;28;20458;-71
2021/07/11 01:28:58;;;;;;;5.40;4.97;;;;;;;16.05;77.71;101713.75;5026946;28;20793;-71
2021/07/11 01:31:26;;;;;;;4.97;4.53;;;;;;;15.62;79.31;101702.63;5028614;28;20439;-72
2021/07/11 01:33:52;;;;;;;5.07;4.57;;;;;;;15.88;78.86;101726.97;5029052;28;20962;-71
2021/07/11 01:36:20;;;;;;;4.70;4.40;;;;;;;15.45;78.30;101646.31;5037204;28;21033;-71
2021/07/11 01:38:48;;;;;;;4.53;4.13;;;;;;;15.88;78.82;101735.06;5025228;28;20430;-71
2021/07/11 01:41:14;;;;;;;4.50;3.93;;;;;;;15.72;79.29;101733.63;5030876;28;20531;-71
2021/07/11 01:43:42;;;;;;;5.00;4.20;;;;;;;15.43;79.49;101666.47;5028388;28;21344;-70
2021/07/11 01:46:09;;;;;;;5.10;4.70;;;;;;;15.92;78.79;101741.72;5028449;28;20461;-70
2021/07/11 01:48:36;;;;;;;4.97;4.50;;;;;;;15.96;78.41;101752.94;5027024;28;20438;-71
2021/07/11 01:51:02;;;;;;;4.33;4.00;;;;;;;16.04;78.08;101736.47;5026146;28;20460;-70
2021/07/11 01:53:45;;;;;;;5.00;4.60;;;;;;;15.52;79.17;101712.00;5033787;28;20479;-70
2021/07/11 01:56:12;;;;;;;5.63;4.23;;;;;;;14.85;78.97;101580.72;5033050;28;20578;-71
2021/07/11 01:58:40;;;;;;;4.80;4.40;;;;;;;16.00;78.03;101725.25;5031743;28;20526;-71
2021/07/11 02:01:09;;;;;;;5.20;4.70;;;;;;;15.40;79.35;101675.03;5029641;28;20188;-71
2021/07/11 02:03:35;;;;;;;4.43;4.13;;;;;;;15.42;78.72;101657.56;5030275;28;20469;-70
2021/07/11 02:06:00;;;;;;;5.00;4.60;;;;;;;15.96;77.78;101696.13;5031052;28;21684;-71
2021/07/11 02:08:26;;;;;;;4.77;4.37;;;;;;;15.71;78.18;101668.94;5028814;28;20800;-71
2021/07/11 02:10:53;;;;;;;4.73;4.30;;;;;;;15.89;78.36;101717.78;5018514;28;20192;-71
2021/07/11 02:13:38;;;;;;;5.40;4.90;;;;;;;16.02;78.51;101725.84;5031380;28;20181;-71
2021/07/11 02:16:10;;;;;;;4.87;4.47;;;;;;;15.55;78.44;101656.69;5031838;28;21204;-71
2021/07/11 02:18:39;;;;;;;4.37;4.07;;;;;;;15.84;78.67;101730.28;5029683;28;20876;-71
2021/07/11 02:21:05;;;;;;;4.73;4.33;;;;;;;15.70;79.00;101727.59;5027357;28;20446;-71
2021/07/11 02:23:33;;;;;;;5.27;4.87;;;;;;;15.88;78.47;101726.97;5026379;28;20489;-73
2021/07/11 02:25:59;;;;;;;5.90;5.40;;;;;;;15.88;78.59;101723.41;5033878;28;20467;-72
2021/07/11 02:28:28;;;;;;;5.73;5.13;;;;;;;15.54;78.80;101690.19;5025637;28;20488;-72
2021/07/11 02:30:59;;;;;;;6.17;5.17;;;;;;;15.82;78.55;101720.53;5026979;28;20426;-72
2021/07/11 02:33:32;;;;;;;5.03;4.63;;;;;;;15.89;78.82;101719.66;5031914;28;20951;-72
2021/07/11 02:36:00;;;;;;;5.80;5.30;;;;;;;15.87;78.96;101725.28;5031491;28;20508;-72
2021/07/11 02:38:31;;;;;;;9.30;5.60;;;;;;;15.79;79.13;101733.63;5031785;28;20439;-72
2021/07/11 02:40:57;;;;;;;6.27;5.77;;;;;;;15.73;79.27;101732.59;5027130;28;20505;-72
2021/07/11 02:43:24;;;;;;;5.57;5.17;;;;;;;15.14;79.23;101630.75;5029018;28;20467;-72
2021/07/11 02:45:51;;;;;;;5.43;4.93;;;;;;;15.60;79.50;101708.25;5026172;28;20211;-72
2021/07/11 02:48:17;;;;;;;5.13;4.73;;;;;;;15.74;78.98;101718.03;5025552;28;20457;-72
2021/07/11 02:50:45;;;;;;;5.30;4.80;;;;;;;15.70;78.82;101718.66;5030462;28;20450;-72
2021/07/11 02:53:15;;;;;;;5.37;4.97;;;;;;;15.62;79.67;101716.16;5030703;28;20461;-72
2021/07/11 02:55:41;;;;;;;5.10;4.70;;;;;;;15.21;80.05;101673.97;5029553;28;20561;-72
2021/07/11 02:58:13;;;;;;;5.57;5.07;;;;;;;15.29;79.13;101655.69;5029135;28;20449;-72
2021/07/11 03:00:41;;;;;;;5.70;5.20;;;;;;;15.55;79.27;101714.28;5028509;28;20447;-72
2021/07/11 03:03:10;;;;;;;5.83;5.33;;;;;;;15.56;79.12;101707.00;5029399;28;21053;-72
2021/07/11 03:05:36;;;;;;;6.10;5.50;;;;;;;15.40;79.27;101680.44;5037778;28;20462;-72
2021/07/11 03:08:02;;;;;;;6.10;5.60;;;;;;;15.25;79.92;101688.75;5028043;28;20454;-72
2021/07/11 03:10:27;;;;;;;6.37;5.77;;;;;;;15.26;78.85;101669.63;5028607;28;20199;-72
2021/07/11 03:12:57;;;;;;;5.90;5.30;;;;;;;15.55;79.41;101719.69;5026546;28;20445;-72
2021/07/11 03:15:22;;;;;;;7.17;6.03;;;;;;;15.21;78.76;101623.47;5025437;28;20601;-71
2021/07/11 03:17:48;;;;;;;5.90;5.40;;;;;;;15.51;78.85;101679.78;5030555;28;20458;-72
2021/07/11 03:20:15;;;;;;;6.83;6.13;;;;;;;15.51;79.46;101713.06;5027960;28;20280;-72
2021/07/11 03:22:42;;;;;;;6.90;6.27;;;;;;;15.21;78.78;101663.16;5029527;28;20473;-72
2021/07/11 03:25:10;;;;;;;5.73;5.33;;;;;;;15.57;78.83;101706.81;5028003;28;20459;-72
2021/07/11 03:27:36;;;;;;;6.97;6.20;;;;;;;15.48;79.34;101713.47;5031012;28;20483;-72
2021/07/11 03:30:11;;;;;;;6.57;5.63;;;;;;;15.49;79.16;101707.00;5029058;28;20438;-72
2021/07/11 03:32:55;;;;;;;6.60;6.00;;;;;;;15.51;79.06;101707.66;5027778;28;20434;-72
2021/07/11 03:35:29;;;;;;;6.10;5.60;;;;;;;15.67;78.24;101716.34;5026259;28;20552;-72
2021/07/11 03:37:59;;;;;;;7.00;5.30;;;;;;;15.59;77.87;101693.06;5029383;28;20433;-72
2021/07/11 03:40:28;;;;;;;6.10;5.60;;;;;;;15.62;78.50;101722.38;5028718;28;20457;-72
2021/07/11 03:42:55;;;;;;;7.20;5.70;;;;;;;15.31;78.28;101664.41;5025775;28;20446;-72
2021/07/11 03:45:22;;;;;;;6.40;5.83;;;;;;;14.90;78.13;101603.34;5027347;28;20466;-72
2021/07/11 03:47:56;;;;;;;5.93;5.43;;;;;;;15.66;78.03;101720.09;5025180;28;20450;-72
2021/07/11 03:50:23;;;;;;;5.83;5.33;;;;;;;15.27;78.40;101665.88;5028001;28;20479;-72
2021/07/11 03:52:56;;;;;;;5.40;5.00;;;;;;;15.78;77.70;101715.72;5024622;28;20923;-72
2021/07/11 03:55:22;;;;;;;5.67;5.20;;;;;;;15.25;78.23;101662.56;5029266;28;20469;-71
2021/07/11 03:57:49;;;;;;;6.10;5.57;;;;;;;14.93;79.26;101642.63;5038123;28;20442;-72
2021/07/11 04:00:16;;;;;;;6.13;5.63;;;;;;;15.27;78.89;101659.63;5029773;28;20443;-72
2021/07/11 04:02:48;;;;;;;6.30;5.80;;;;;;;15.52;79.48;101730.94;5028499;28;20465;-72
2021/07/11 04:05:17;;;;;;;7.47;6.57;;;;;;;15.58;78.98;101730.09;5025585;28;20506;-71
2021/07/11 04:07:44;;;;;;;6.87;6.27;;;;;;;15.46;79.55;101730.94;5029895;28;20504;-71
2021/07/11 04:10:12;;;;;;;6.70;6.00;;;;;;;15.69;79.15;101728.66;5028408;28;20444;-71
2021/07/11 04:12:38;;;;;;;6.00;5.50;;;;;;;15.23;79.59;101677.31;5027230;28;20497;-71
2021/07/11 04:15:04;;;;;;;7.37;6.67;;;;;;;15.33;79.00;101666.91;5031849;28;20460;-71
2021/07/11 04:17:32;;;;;;;7.00;6.33;;;;;;;15.75;79.18;101732.38;5025756;28;20439;-72
2021/07/11 04:20:00;;;;;;;7.33;6.63;;;;;;;15.73;78.72;101720.94;5029454;28;20525;-71
2021/07/11 04:22:26;;;;;;;6.93;6.33;;;;;;;15.60;79.57;101730.72;5027989;28;20470;-71
2021/07/11 04:24:53;;;;;;;6.57;5.97;;;;;;;15.73;79.37;101742.56;5023229;28;20467;-71
2021/07/11 04:27:20;;;;;;;6.00;5.50;;;;;;;15.45;79.84;101708.50;5029494;28;20927;-72
2021/07/11 04:29:48;;;;;;;6.37;5.63;;;;;;;15.77;78.74;101716.78;5041802;28;20445;-71
2021/07/11 04:32:13;;;;;;;6.20;5.70;;;;;;;15.39;79.57;101682.31;5033086;28;20773;-71
2021/07/11 04:34:40;;;;;;;7.40;6.47;;;;;;;15.84;79.16;101750.03;5034032;28;20429;-71
2021/07/11 04:37:07;;;;;;;6.60;5.97;;;;;;;15.95;78.76;101751.28;5031283;28;20241;-71
2021/07/11 04:39:34;;;;;;;6.77;6.20;;;;;;;15.92;79.18;101752.53;5031750;28;20518;-72
2021/07/11 04:42:00;;;;;;;6.30;5.70;;;;;;;15.77;79.14;101722.19;5032129;28;20508;-72
2021/07/11 04:44:27;;;;;;;8.53;5.77;;;;;;;16.05;78.93;101751.66;5033376;28;20567;-71
2021/07/11 04:46:53;;;;;;;6.00;5.60;;;;;;;15.94;79.38;101744.19;5029854;28;20462;-71
2021/07/11 04:49:18;;;;;;;7.93;5.93;;;;;;;15.82;79.42;101706.13;5034412;28;20504;-71
2021/07/11 04:51:44;;;;;;;6.00;5.50;;;;;;;15.69;79.80;101714.31;5032797;28;20188;-72
2021/07/11 04:54:10;;;;;;;6.93;5.90;;;;;;;15.94;79.85;101711.72;5030419;28;20195;-71
2021/07/11 04:56:36;;;;;;;5.87;5.27;;;;;;;16.11;80.60;101747.25;5033973;28;20208;-71
2021/07/11 04:59:03;;;;;;;5.50;5.10;;;;;;;16.32;79.88;101741.56;5032521;28;20196;-72
2021/07/11 05:01:28;;;;;;;5.70;5.20;;;;;;;16.16;80.80;101742.06;5031468;28;20467;-71
2021/07/11 05:03:54;;;;;;;6.23;5.60;;;;;;;16.20;80.65;101743.28;5030558;28;20558;-72
2021/07/11 05:06:20;;;;;;;6.13;5.30;;;;;;;15.70;80.98;101656.44;5028228;28;20298;-71
2021/07/11 05:08:47;;;;;;;5.60;5.20;;;;;;;16.42;80.53;101746.53;5033844;28;20439;-71
2021/07/11 05:11:13;;;;;;;5.13;4.63;;;;;;;16.10;80.61;101694.19;5031533;28;20196;-71
2021/07/11 05:13:38;;;;;;;4.23;3.93;;;;;;;16.33;81.33;101747.81;5029538;28;20938;-72
2021/07/11 05:16:04;;;;;;;4.33;4.03;;;;;;;16.49;80.35;101750.03;5030212;28;20249;-71
2021/07/11 05:18:30;;;;;;;5.47;5.07;;;;;;;15.88;81.25;101670.16;5027269;28;20192;-72
2021/07/11 05:20:55;;;;;;;5.90;5.17;;;;;;;16.30;81.42;101730.13;5032760;28;20438;-72
2021/07/11 05:23:21;;;;;;;5.20;4.80;;;;;;;16.58;80.84;101753.34;5029340;28;20201;-71
2021/07/11 05:25:47;;;;;;;4.70;4.30;;;;;;;16.51;81.19;101739.81;5024328;28;21196;-71
2021/07/11 05:28:13;;;;;;;4.17;3.87;;;;;;;16.38;81.29;101727.19;5025565;28;20469;-71
2021/07/11 05:30:38;;;;;;;4.10;3.80;;;;;;;16.75;80.56;101761.75;5029425;28;20202;-71
2021/07/11 05:33:04;;;;;;;4.13;3.83;;;;;;;16.56;80.43;101712.09;5031272;28;20534;-72
2021/07/11 05:35:29;;;;;;;5.50;4.50;;;;;;;15.98;80.25;101610.97;5032965;28;20613;-72
2021/07/11 05:37:55;;;;;;;3.80;3.60;;;;;;;16.88;80.54;101749.00;5029087;28;20583;-71
2021/07/11 05:40:21;;;;;;;4.43;4.10;;;;;;;16.92;79.83;101747.53;5030613;28;20192;-71
2021/07/11 05:42:47;;;;;;;5.27;4.10;;;;;;;16.94;80.59;101750.00;5034239;28;20841;-71
2021/07/11 05:45:13;;;;;;;4.53;3.80;;;;;;;17.05;80.01;101737.63;5028391;28;20470;-72
2021/07/11 05:47:39;;;;;;;3.93;3.63;;;;;;;17.05;79.73;101734.94;5031372;28;20275;-71
2021/07/11 05:50:08;;;;;;;3.70;3.40;;;;;;;17.18;79.79;101753.78;5031064;28;20469;-71
2021/07/11 05:52:34;;;;;;;4.77;4.27;;;;;;;16.97;79.57;101717.03;5030864;28;20184;-72
2021/07/11 05:54:59;;;;;;;5.13;4.63;;;;;;;17.09;79.05;101719.88;5030002;28;20561;-71
2021/07/11 05:57:27;;;;;;;4.77;4.30;;;;;;;17.32;79.38;101744.50;5032523;28;20447;-72
2021/07/11 05:59:54;;;;;;;4.90;4.40;;;;;;;17.30;78.53;101737.63;5031648;28;20672;-71
2021/07/11 06:02:19;;;;;;;5.17;4.67;;;;;;;17.46;78.72;101742.50;5034353;28;21107;-71
2021/07/11 06:04:44;;;;;;;5.63;5.20;;;;;;;17.53;78.79;101745.16;5033062;28;20459;-71
2021/07/11 06:07:10;;;;;;;5.13;4.73;;;;;;;17.07;79.52;101681.34;5029822;28;20275;-71
2021/07/11 06:09:35;;;;;;;5.17;4.67;;;;;;;17.65;78.73;101747.94;5032884;28;20641;-71
2021/07/11 06:12:01;;;;;;;5.10;4.70;;;;;;;17.43;78.58;101717.72;5035068;28;20214;-71
2021/07/11 06:14:26;;;;;;;4.47;4.17;;;;;;;17.21;78.87;101668.47;5030025;28;20687;-71
2021/07/11 06:16:52;;;;;;;5.37;4.07;;;;;;;17.30;78.67;101676.13;5035749;28;20575;-71
2021/07/11 06:19:18;;;;;;;5.20;4.80;;;;;;;17.89;76.54;101749.00;5034638;28;20694;-71
2021/07/11 06:21:43;;;;;;;4.40;4.00;;;;;;;17.73;75.94;101710.50;5039479;28;20211;-71
2021/07/11 06:24:09;;;;;;;4.70;4.30;;;;;;;17.61;75.24;101686.00;5027518;28;20223;-72
2021/07/11 06:26:34;;;;;;;4.57;4.17;;;;;;;17.99;75.28;101733.88;5031438;28;20647;-71
2021/07/11 06:29:00;;;;;;;3.43;3.23;;;;;;;17.58;75.29;101653.09;5039501;28;20215;-71
2021/07/11 06:31:25;;;;;;;4.57;4.17;;;;;;;18.09;75.77;101719.75;5035285;28;20230;-72
2021/07/11 06:33:51;;;;;;;3.87;3.20;;;;;;;17.96;74.92;101680.00;5035727;28;20186;-71
2021/07/11 06:36:17;;;;;;;5.30;4.83;;;;;;;18.31;73.92;101728.22;5031130;28;20224;-71
2021/07/11 06:38:42;;;;;;;4.97;4.57;;;;;;;18.13;73.41;101699.22;5034047;28;20191;-71
2021/07/11 06:41:07;;;;;;;4.73;4.30;;;;;;;18.21;73.31;101698.09;5033619;28;20230;-71
2021/07/11 06:43:33;;;;;;;7.47;4.57;;;;;;;18.33;73.95;101695.44;5032863;28;20211;-71
2021/07/11 06:45:58;;;;;;;4.27;3.87;;;;;;;18.33;73.13;101696.25;5019803;28;20583;-71
2021/07/11 06:48:24;;;;;;;4.87;3.87;;;;;;;18.18;73.01;101657.81;5032508;28;20219;-71
2021/07/11 06:50:51;;;;;;;3.47;3.17;;;;;;;18.45;72.68;101708.00;5031971;28;20199;-71
2021/07/11 06:53:17;;;;;;;3.80;3.33;;;;;;;18.58;72.70;101707.00;5028143;28;20595;-72
2021/07/11 06:55:42;;;;;;;3.90;3.60;;;;;;;18.73;72.72;101731.03;5030060;28;20545;-71
2021/07/11 06:58:07;;;;;;;4.30;3.90;;;;;;;18.55;72.13;101710.16;5027872;28;20188;-72
2021/07/11 07:00:33;;;;;;;5.30;4.00;;;;;;;18.70;72.20;101732.31;5029400;28;20182;-71
2021/07/11 07:02:58;;;;;;;3.97;3.67;;;;;;;18.40;71.63;101688.00;5026166;28;20188;-71
2021/07/11 07:05:25;;;;;;;4.17;3.87;;;;;;;18.45;71.81;101678.09;5033928;28;20664;-72
2021/07/11 07:07:51;;;;;;;5.10;4.60;;;;;;;18.84;71.23;101718.56;5030903;28;20188;-72
2021/07/11 07:10:17;;;;;;;5.43;4.40;;;;;;;18.58;71.18;101676.28;5033292;28;20443;-72
2021/07/11 07:12:46;;;;;;;4.10;3.80;;;;;;;18.99;71.35;101712.69;5040545;28;20938;-72
2021/07/11 07:15:13;;;;;;;6.30;3.97;;;;;;;18.89;70.41;101696.94;5035802;28;20878;-71
2021/07/11 07:17:39;;;;;;;3.63;3.33;;;;;;;19.06;70.44;101708.78;5033839;28;20535;-71
2021/07/11 07:20:07;;;;;;;3.93;3.63;;;;;;;18.80;69.89;101647.50;5043182;28;20522;-72
2021/07/11 07:22:36;;;;;;;4.37;3.97;;;;;;;18.88;69.92;101659.94;5033207;28;20465;-71
2021/07/11 07:25:07;;;;;;;5.17;4.37;;;;;;;18.86;70.40;101672.94;5037244;28;20524;-71
2021/07/11 07:27:32;;;;;;;4.03;3.73;;;;;;;19.02;69.90;101679.59;5037371;28;20824;-72
2021/07/11 07:29:58;;;;;;;5.23;4.73;;;;;;;19.20;70.15;101715.66;5034419;28;20448;-71
2021/07/11 07:32:23;;;;;;;4.97;3.80;;;;;;;19.28;69.50;101702.78;5031941;28;20263;-71
2021/07/11 07:34:48;;;;;;;4.43;4.00;;;;;;;19.13;69.39;101667.91;5020393;28;20180;-71
2021/07/11 07:37:14;;;;;;;4.27;3.80;;;;;;;19.20;69.70;101671.31;5031749;28;20182;-72
2021/07/11 07:39:39;;;;;;;3.90;3.50;;;;;;;19.55;69.24;101703.13;5032994;28;20180;-72
2021/07/11 07:42:05;;;;;;;3.90;3.60;;;;;;;19.66;69.71;101713.22;5034279;28;20184;-72
2021/07/11 07:44:30;;;;;;;3.80;3.50;;;;;;;19.37;69.38;101653.22;5036319;28;20211;-71
2021/07/11 07:46:56;;;;;;;4.03;3.67;;;;;;;19.75;69.53;101719.94;5029074;28;20204;-72
2021/07/11 07:49:22;;;;;;;4.07;3.43;;;;;;;19.72;69.17;101714.97;5028027;28;21256;-72
2021/07/11 07:51:47;;;;;;;4.90;4.50;;;;;;;19.59;68.37;101696.16;5030905;28;20266;-72
2021/07/11 07:54:13;;;;;;;3.77;3.17;;;;;;;19.57;69.21;101668.34;5031992;28;20188;-72
2021/07/11 07:56:38;;;;;;;4.40;3.87;;;;;;;19.26;68.54;101609.72;5033667;28;20204;-72
2021/07/11 07:59:03;;;;;;;4.37;3.97;;;;;;;19.88;69.38;101699.00;5028311;28;20180;-72
2021/07/11 08:01:29;;;;;;;4.20;3.83;;;;;;;19.50;69.14;101634.97;5028199;28;20637;-72
2021/07/11 08:03:54;;;;;;;4.23;3.90;;;;;;;19.76;69.32;101682.66;5031217;28;20206;-72
2021/07/11 08:06:20;;;;;;;4.70;4.30;;;;;;;19.81;69.33;101693.66;5046104;28;20807;-73
2021/07/11 08:08:45;;;;;;;4.67;4.20;;;;;;;19.57;69.27;101657.47;5037775;28;20176;-74
2021/07/11 08:11:10;;;;;;;4.20;3.73;;;;;;;19.60;68.51;101640.66;5045529;28;20188;-72
2021/07/11 08:13:38;;;;;;;4.80;4.27;;;;;;;20.02;68.02;101703.09;5036515;28;20191;-72
2021/07/11 08:16:05;;;;;;;3.77;3.47;;;;;;;19.82;68.61;101692.63;5035202;28;20207;-72
2021/07/11 08:18:30;;;;;;;3.80;3.50;;;;;;;19.82;68.40;101677.09;5039196;28;20435;-73
2021/07/11 08:20:56;;;;;;;3.93;3.63;;;;;;;19.88;68.10;101679.94;5033497;28;20532;-73
2021/07/11 08:23:21;;;;;;;3.63;3.33;;;;;;;20.28;68.75;101726.25;5034698;28;20245;-73
2021/07/11 08:25:46;;;;;;;3.73;3.43;;;;;;;20.24;68.32;101695.09;5030727;28;20203;-73
2021/07/11 08:28:12;;;;;;;5.00;3.67;;;;;;;19.91;68.78;101634.00;5036752;28;20556;-73
2021/07/11 08:30:38;;;;;;;4.50;4.13;;;;;;;20.41;68.24;101701.41;5033241;28;20185;-71
2021/07/11 08:33:03;;;;;;;4.83;3.67;;;;;;;20.20;67.81;101662.06;5034614;28;20187;-72
2021/07/11 08:35:30;;;;;;;6.23;4.37;;;;;;;20.59;67.92;101724.13;5030189;28;20211;-70
2021/07/11 08:37:55;;;;;;;4.30;3.90;;;;;;;20.55;67.50;101721.06;5033070;28;20221;-71
2021/07/11 08:40:21;;;;;;;5.00;4.50;;;;;;;20.58;67.42;101726.03;5034596;28;20472;-71
2021/07/11 08:42:50;;;;;;;4.03;3.73;;;;;;;20.66;68.10;101730.25;5045410;28;20216;-71
2021/07/11 08:45:15;;;;;;;4.40;4.00;;;;;;;20.06;67.62;101630.75;5030219;28;21303;-71
2021/07/11 08:47:41;;;;;;;3.87;3.57;;;;;;;20.53;66.66;101694.03;5026428;28;20443;-72
2021/07/11 08:50:09;;;;;;;4.10;3.80;;;;;;;20.67;66.09;101729.19;5029795;28;20208;-71
2021/07/11 08:52:37;;;;;;;5.30;4.13;;;;;;;20.83;65.44;101727.53;5033894;28;20259;-71
2021/07/11 08:55:17;;;;;;;4.00;3.70;;;;;;;20.54;66.92;101693.00;5031284;28;20457;-72
2021/07/11 08:57:48;;;;;;;5.13;4.67;;;;;;;20.22;67.06;101638.16;5029571;28;20429;-73
2021/07/11 09:00:15;;;;;;;4.77;3.67;;;;;;;20.61;67.42;101703.72;5029450;28;20419;-72
2021/07/11 09:02:40;;;;;;;3.63;3.33;;;;;;;20.92;67.59;101729.63;5031970;28;20493;-72
2021/07/11 09:05:06;;;;;;;5.00;4.60;;;;;;;21.05;66.90;101750.31;5027979;28;20863;-72
2021/07/11 09:07:33;;;;;;;3.90;3.57;;;;;;;21.05;65.79;101760.38;5030921;28;20195;-71
2021/07/11 09:10:03;;;;;;;3.80;3.50;;;;;;;21.13;66.29;101740.91;5033238;28;20856;-72
2021/07/11 09:12:29;;;;;;;3.93;3.53;;;;;;;21.24;66.14;101741.91;5044812;28;20449;-72
2021/07/11 09:14:54;;;;;;;4.20;3.90;;;;;;;20.73;66.16;101674.50;5040190;28;20426;-71
2021/07/11 09:17:20;;;;;;;4.33;3.90;;;;;;;21.34;64.71;101748.31;5032012;28;20522;-71
2021/07/11 09:19:51;;;;;;;3.70;3.43;;;;;;;21.30;65.96;101728.06;5041922;28;20266;-71
2021/07/11 09:22:22;;;;;;;5.30;3.73;;;;;;;21.44;65.62;101729.41;5035410;28;20259;-73
2021/07/11 09:24:48;;;;;;;4.10;3.80;;;;;;;21.75;64.19;101745.41;5038778;28;20826;-72
2021/07/11 09:27:19;;;;;;;5.03;4.20;;;;;;;21.72;62.90;101744.00;5036305;28;20435;-73
2021/07/11 09:29:45;;;;;;;3.83;3.53;;;;;;;21.06;63.81;101650.19;5035425;28;20481;-74
2021/07/11 09:32:26;;;;;;;3.50;3.30;;;;;;;21.87;64.11;101751.56;5035694;28;20915;-74
2021/07/11 09:34:52;;;;;;;4.00;3.70;;;;;;;21.98;64.32;101730.69;5032722;28;20430;-72
2021/07/11 09:37:19;;;;;;;4.77;3.60;;;;;;;21.86;62.48;101695.31;5030801;28;20450;-72
2021/07/11 09:39:56;;;;;;;4.27;3.90;;;;;;;22.30;62.77;101752.72;5036224;28;20609;-73
2021/07/11 09:42:32;;;;;;;4.23;3.90;;;;;;;22.20;62.69;101749.88;5039933;28;20434;-72
2021/07/11 09:44:59;;;;;;;3.63;3.33;;;;;;;21.82;63.43;101694.19;5029216;28;20524;-71
2021/07/11 09:47:27;;;;;;;4.13;3.77;;;;;;;22.19;62.61;101749.03;5033753;28;20431;-72
2021/07/11 09:50:13;;;;;;;4.50;4.10;;;;;;;22.22;63.23;101751.28;5033244;28;20439;-71
2021/07/11 09:52:45;;;;;;;6.60;5.13;;;;;;;22.28;61.92;101755.72;5037570;28;20427;-72
2021/07/11 09:55:18;;;;;;;4.47;4.07;;;;;;;22.38;61.57;101749.53;5038747;28;20458;-72
2021/07/11 09:57:59;;;;;;;4.53;4.23;;;;;;;22.18;62.15;101703.66;5035867;28;20523;-72
2021/07/11 10:00:27;;;;;;;3.60;3.30;;;;;;;22.45;61.85;101760.25;5034122;28;20895;-73
2021/07/11 10:02:58;;;;;;;3.97;3.67;;;;;;;22.12;62.36;101731.97;5041334;28;20843;-73
2021/07/11 10:05:25;;;;;;;4.50;4.10;;;;;;;21.84;62.70;101681.94;5034646;28;20525;-72
2021/07/11 10:07:51;;;;;;;5.40;4.27;;;;;;;22.11;61.53;101711.22;5032400;28;20798;-74
2021/07/11 10:10:19;;;;;;;4.80;4.27;;;;;;;22.42;61.07;101749.84;5044246;28;20438;-73
2021/07/11 10:12:46;;;;;;;4.37;3.97;;;;;;;22.38;61.89;101755.00;5037828;28;20485;-73
2021/07/11 10:15:15;;;;;;;5.07;3.90;;;;;;;22.64;61.70;101747.91;5037040;28;20994;-73
2021/07/11 10:17:54;;;;;;;3.70;3.40;;;;;;;22.72;61.93;101733.75;5034980;28;20430;-73
2021/07/11 10:20:21;;;;;;;4.20;3.80;;;;;;;22.73;62.00;101751.81;5034784;28;20453;-72
2021/07/11 10:22:50;;;;;;;4.70;4.40;;;;;;;22.58;61.48;101743.47;5034750;28;20492;-72
2021/07/11 10:25:27;;;;;;;4.60;4.20;;;;;;;22.31;61.29;101703.28;5036009;28;20459;-73
2021/07/11 10:28:11;;;;;;;4.43;4.03;;;;;;;22.65;61.03;101738.63;5030557;28;20529;-72
2021/07/11 10:30:39;;;;;;;4.60;4.20;;;;;;;22.97;60.09;101727.75;5031063;28;20446;-73
2021/07/11 10:33:15;;;;;;;6.33;4.50;;;;;;;22.98;59.45;101731.31;5031428;28;20442;-73
2021/07/11 10:36:02;;;;;;;4.00;3.70;;;;;;;22.86;59.59;101736.09;5030272;28;21038;-73
2021/07/11 10:38:33;;;;;;;3.80;3.50;;;;;;;22.88;59.67;101721.03;5033174;28;21008;-73
2021/07/11 10:41:09;;;;;;;3.80;3.50;;;;;;;23.20;60.67;101734.78;5032220;28;20433;-73
2021/07/11 10:43:34;;;;;;;4.93;4.50;;;;;;;23.21;60.55;101721.91;5025413;28;20470;-74
2021/07/11 10:46:00;;;;;;;4.77;4.37;;;;;;;23.18;59.61;101693.16;5031499;28;20469;-73
2021/07/11 10:48:30;;;;;;;3.13;2.90;;;;;;;23.34;59.04;101735.13;5029435;28;20231;-73
2021/07/11 10:50:55;;;;;;;4.27;3.80;;;;;;;23.15;59.84;101718.31;5030038;28;20538;-73
2021/07/11 10:53:21;;;;;;;4.40;3.70;;;;;;;23.26;60.74;101732.06;5029460;28;20438;-73
2021/07/11 10:55:47;;;;;;;4.20;3.90;;;;;;;22.99;61.00;101722.81;5033462;28;20212;-73
2021/07/11 10:58:19;;;;;;;3.40;3.20;;;;;;;23.13;61.48;101733.34;5030528;28;20449;-73
2021/07/11 11:00:46;;;;;;;3.87;3.57;;;;;;;23.04;62.03;101722.06;5031274;28;20183;-73
2021/07/11 11:03:20;;;;;;;4.43;3.87;;;;;;;22.58;61.29;101636.00;5036908;28;20451;-74
2021/07/11 11:05:50;;;;;;;4.33;3.93;;;;;;;23.11;61.62;101695.28;5029438;28;20465;-74
2021/07/11 11:08:21;;;;;;;4.57;4.27;;;;;;;23.56;60.59;101739.69;5030927;28;20443;-74
2021/07/11 11:10:49;;;;;;;4.30;4.00;;;;;;;23.49;60.05;101703.47;5030849;28;20445;-74
2021/07/11 11:13:17;;;;;;;4.50;4.20;;;;;;;23.76;59.63;101733.53;5033668;28;20456;-74
2021/07/11 11:15:50;;;;;;;4.70;4.30;;;;;;;23.85;58.71;101727.28;5033080;28;21178;-73
2021/07/11 11:18:23;;;;;;;4.43;4.13;;;;;;;23.74;60.25;101728.31;5035538;28;20434;-74
2021/07/11 11:20:55;;;;;;;4.07;3.53;;;;;;;23.51;58.84;101718.56;5034638;28;20443;-74
2021/07/11 11:23:21;;;;;;;5.47;4.70;;;;;;;23.41;60.56;101743.13;5035563;28;20581;-74
2021/07/11 11:25:47;;;;;;;4.43;3.90;;;;;;;23.63;59.11;101727.38;5028953;28;20550;-74